Kezdőlap
METAR-TAF:

METAR-TAF

Repülőterek :

Stockholm, Svédország

földrajzi szélesség: 59-21N, földrajzi hosszúság: 017-57E, magasság: 14 m

Jelenlegi meteorológiai megfigyelések

A jelentés 28 perccel ezelõtt készült, 19:50 UTC
Nyugati szél 4 kt
Hőmérséklet 21°C
Páratartalom 64%
Légköri nyomás 1015 hPa
Látótávolság 10 km, vagy több
felhőtlen 1500 m magasságban, és nincs gomolyfelhõ

METAR: ESSB 191950Z 28004KT CAVOK 21/14 Q1015

Idő: 22:18 (20:18 UTC)

Előrejelzés

A jelentés 2 órával és 48 perccel ezelõtt készült, 17:30 UTC
Az előrejelzés 19-én 18 óra UTC és 19-én 21 óra UTC között érvényes
Nyugat-északnyugati szél 10 kt
Látótávolság 10 km, vagy több
felhőtlen 1500 m magasságban, és nincs gomolyfelhõ
19-én 19 óra UTC és 19-én 21 óra UTC között fokozatosan kialakuló
Különbözõ irányokból fújó szél 2 kt

TAF: ESSB 191730Z 1918/1921 29010KT CAVOK BECMG 1919/1921 VRB02KT

Meteorológiai megfigyelések és előrejelzések több, mint 4000 repülőtéren (METAR és TAF jelentéseket).

A térképen piros és sárga pontok jelzik az elérhető meteorológiai állomásokat.

Mozgassa az egeret a pont fölött, hogy megjelenjen az állomás neve.

Azután kattintson az időjárási megfigyelések és előrejelzések megtekintéséhez.

A térkép megváltoztatása: kattintson a fekete keresztel jelölt zöld gombra ráközelítéshez, a vonallal jelölt zöld gombra távolításhoz, vagy a zöld nyilakra a szomszédos térképek eléréséhez.


METAR-TAF: